createdAt,value
2018-06-27T05:44:32.544Z,25.19
2018-06-27T05:47:35.829Z,25.35
2018-06-27T05:50:38.955Z,25.89
2018-06-27T05:53:42.102Z,26.89
2018-06-27T05:56:47.149Z,28.11
2018-06-27T05:59:50.493Z,27.78
2018-06-27T06:02:55.573Z,27.53
2018-06-27T06:05:59.826Z,27.65
2018-06-27T06:09:06.017Z,27.86
2018-06-27T06:12:09.267Z,28.76
2018-06-27T06:15:12.465Z,28.89
2018-06-27T06:18:15.585Z,27.28
2018-06-27T06:21:19.027Z,28.46
2018-06-27T06:24:22.176Z,27.81
2018-06-27T06:27:26.309Z,29.15
2018-06-27T06:30:29.603Z,29.13
2018-06-27T06:33:33.815Z,29.01
2018-06-27T06:36:37.197Z,29.23
2018-06-27T06:39:40.405Z,29.57
2018-06-27T06:42:43.820Z,30.26
2018-06-27T06:45:47.132Z,29.28
2018-06-27T06:48:51.327Z,30.09
2018-06-27T06:51:54.757Z,28.03
2018-06-27T06:54:57.949Z,27.38
2018-06-27T06:58:01.223Z,28.40
2018-06-27T07:01:05.611Z,29.45
2018-06-27T07:04:10.063Z,29.16
2018-06-27T07:07:13.276Z,28.99
2018-06-27T07:10:16.501Z,29.26
2018-06-27T07:13:19.658Z,27.88
2018-06-27T07:16:25.104Z,27.08
2018-06-27T07:19:28.258Z,27.36
2018-06-27T07:22:31.641Z,25.82
2018-06-27T07:25:36.890Z,28.41
2018-06-27T07:28:40.367Z,27.62
2018-06-27T07:31:43.556Z,28.57
2018-06-27T07:34:46.851Z,29.37
2018-06-27T07:37:50.195Z,26.52
2018-06-27T07:40:53.277Z,28.11
2018-06-27T07:43:56.499Z,28.71
2018-06-27T07:46:59.664Z,29.51
2018-06-27T07:50:02.981Z,29.57
2018-06-27T07:53:07.215Z,28.08
2018-06-27T07:56:10.548Z,26.78
2018-06-27T07:59:13.690Z,26.15
2018-06-27T08:02:16.762Z,26.53
2018-06-27T08:05:19.900Z,27.39
2018-06-27T08:08:23.116Z,26.33
2018-06-27T08:11:27.532Z,24.66
2018-06-27T08:14:30.768Z,24.24
2018-06-27T08:17:33.965Z,24.25
2018-06-27T08:20:37.141Z,24.50
2018-06-27T08:23:40.394Z,24.29
2018-06-27T08:26:43.631Z,24.04
2018-06-27T08:29:46.680Z,23.65
2018-06-27T08:32:49.961Z,24.06
2018-06-27T08:35:53.244Z,24.27
2018-06-27T08:38:56.471Z,24.94
2018-06-27T08:41:59.702Z,25.11
2018-06-27T08:45:03.035Z,24.63
2018-06-27T08:48:07.050Z,24.11
2018-06-27T08:51:10.344Z,24.23
2018-06-27T08:54:13.527Z,24.74
2018-06-27T08:57:24.627Z,24.53
2018-06-27T09:00:27.801Z,24.07
2018-06-27T09:03:31.119Z,24.45
2018-06-27T09:06:34.308Z,25.66
2018-06-27T09:09:42.895Z,25.39
2018-06-27T09:17:05.885Z,25.15
2018-06-27T09:20:34.283Z,25.10
2018-06-27T09:23:44.584Z,24.36
2018-06-27T09:26:47.904Z,24.08
2018-06-27T09:30:35.207Z,23.87
2018-06-27T09:33:39.954Z,24.29
2018-06-27T09:36:47.028Z,24.73
2018-06-27T09:39:55.299Z,25.78
2018-06-27T09:42:58.523Z,25.65
2018-06-27T09:46:01.805Z,25.40
2018-06-27T09:49:06.902Z,25.99
2018-06-27T09:52:10.198Z,26.25
2018-06-27T09:55:13.470Z,26.20
2018-06-27T09:58:16.553Z,26.09
2018-06-27T10:01:19.641Z,26.70
2018-06-27T10:04:22.847Z,27.37
2018-06-27T10:07:26.066Z,27.43
2018-06-27T10:10:29.280Z,26.50
2018-06-27T10:13:32.978Z,26.57
2018-06-27T10:16:36.140Z,26.90
2018-06-27T10:19:39.381Z,26.61
2018-06-27T10:22:42.522Z,25.99
2018-06-27T10:25:47.337Z,27.60
2018-06-27T10:28:50.486Z,27.94
2018-06-27T10:31:53.702Z,27.10
2018-06-27T10:34:57.026Z,26.35
2018-06-27T10:38:00.058Z,26.79
2018-06-27T10:41:03.275Z,27.34
2018-06-27T10:44:06.366Z,27.35
2018-06-27T10:47:09.516Z,27.96
2018-06-27T10:50:12.528Z,27.69
2018-06-27T10:53:15.656Z,27.91
2018-06-27T10:56:18.899Z,27.48
2018-06-27T10:59:21.908Z,27.31
2018-06-27T11:02:25.110Z,26.99
2018-06-27T11:05:28.229Z,26.50
2018-06-27T11:08:31.457Z,25.92
2018-06-27T11:11:35.121Z,25.71
2018-06-27T11:14:38.213Z,26.38
2018-06-27T11:17:41.323Z,26.46
2018-06-27T11:20:45.703Z,26.85
2018-06-27T11:23:48.789Z,26.40
2018-06-27T11:26:51.873Z,26.65
2018-06-27T11:29:54.872Z,27.34
2018-06-27T11:32:57.946Z,27.44
2018-06-27T11:36:01.007Z,26.73
2018-06-27T11:39:08.048Z,26.52
2018-06-27T11:42:11.357Z,27.11
2018-06-27T11:45:14.385Z,27.92
2018-06-27T11:48:17.623Z,28.16
2018-06-27T11:51:20.867Z,26.95
2018-06-27T11:54:24.046Z,27.47
2018-06-27T11:57:27.128Z,27.98
2018-06-27T12:00:30.757Z,28.02
2018-06-27T12:03:33.853Z,27.24
2018-06-27T12:06:37.335Z,27.05
2018-06-27T12:09:40.382Z,26.90
2018-06-27T12:12:43.510Z,26.85
2018-06-27T12:15:46.520Z,27.68
2018-06-27T12:18:50.742Z,28.20
2018-06-27T12:21:53.837Z,27.88
2018-06-27T12:25:02.875Z,27.70
2018-06-27T12:28:05.951Z,26.64
2018-06-27T12:31:09.326Z,27.06
2018-06-27T12:34:12.424Z,27.37
2018-06-27T12:37:15.643Z,27.60
2018-06-27T12:40:20.907Z,27.12
2018-06-27T12:43:27.561Z,27.05
2018-06-27T12:46:30.826Z,27.75
2018-06-27T12:49:34.025Z,28.14
2018-06-27T12:52:37.336Z,27.83
2018-06-27T12:55:40.422Z,27.08
2018-06-27T12:58:43.453Z,26.50
2018-06-27T13:01:47.639Z,26.98
2018-06-27T13:04:51.258Z,27.73
2018-06-27T13:07:54.663Z,27.85
2018-06-27T13:10:57.891Z,27.30
2018-06-27T13:14:01.285Z,26.95
2018-06-27T13:17:04.716Z,27.47
2018-06-27T13:20:11.372Z,28.41
2018-06-27T13:23:14.485Z,29.23
2018-06-27T13:26:17.588Z,28.82
2018-06-27T13:29:20.738Z,28.47
2018-06-27T13:32:23.921Z,27.86
2018-06-27T13:35:27.042Z,27.04
2018-06-27T13:38:30.120Z,26.84
2018-06-27T13:41:33.304Z,27.08
2018-06-27T13:44:36.309Z,28.24
2018-06-27T13:47:39.345Z,27.72
2018-06-27T13:50:42.456Z,27.33
2018-06-27T13:53:46.819Z,28.42
2018-06-27T13:56:49.913Z,28.70
2018-06-27T13:59:53.324Z,27.21
2018-06-27T14:02:58.466Z,27.71
2018-06-27T14:06:01.510Z,28.03
2018-06-27T14:09:06.741Z,28.33
2018-06-27T14:12:11.114Z,28.75
2018-06-27T14:15:14.170Z,28.45
2018-06-27T14:18:18.422Z,28.60
2018-06-27T14:21:21.609Z,28.49
2018-06-27T14:24:24.881Z,28.60
2018-06-27T14:27:27.865Z,28.66
2018-06-27T14:30:31.441Z,28.98
2018-06-27T14:33:35.593Z,29.13
2018-06-27T14:36:39.760Z,28.16
2018-06-27T14:39:44.002Z,28.56
2018-06-27T14:42:47.326Z,28.74
2018-06-27T14:45:50.443Z,29.06
2018-06-27T14:48:54.172Z,28.40
2018-06-27T14:51:57.443Z,29.15
2018-06-27T14:55:00.532Z,29.51
2018-06-27T14:58:03.729Z,29.61
2018-06-27T15:01:07.822Z,29.45
2018-06-27T15:04:11.000Z,28.92
2018-06-27T15:07:14.169Z,28.97
2018-06-27T15:10:18.374Z,27.70
2018-06-27T15:13:21.715Z,26.95
2018-06-27T15:16:24.974Z,27.37
2018-06-27T15:19:28.201Z,28.37
2018-06-27T15:22:32.446Z,29.23
2018-06-27T15:25:35.588Z,29.68
2018-06-27T15:28:38.650Z,27.99
2018-06-27T15:31:42.795Z,26.63
2018-06-27T15:34:45.978Z,26.48
2018-06-27T15:37:49.200Z,27.16
2018-06-27T15:40:52.595Z,28.28
2018-06-27T15:43:55.725Z,29.18
2018-06-27T15:46:58.911Z,28.63
2018-06-27T15:50:02.053Z,27.68
2018-06-27T15:53:05.343Z,26.54
2018-06-27T15:56:08.502Z,26.25
2018-06-27T15:59:11.689Z,26.92
2018-06-27T16:02:14.853Z,27.57
2018-06-27T16:05:18.033Z,28.26
2018-06-27T16:08:21.160Z,28.64
2018-06-27T16:11:24.305Z,29.11
2018-06-27T16:14:27.410Z,29.35
2018-06-27T16:17:30.605Z,29.07
2018-06-27T16:20:33.801Z,28.15
2018-06-27T16:23:38.158Z,27.04
2018-06-27T16:26:41.341Z,27.52
2018-06-27T16:29:44.597Z,28.37
2018-06-27T16:32:47.821Z,28.23
2018-06-27T16:35:52.027Z,29.00
2018-06-27T16:38:56.184Z,27.87
2018-06-27T16:41:59.273Z,27.64
2018-06-27T16:45:04.674Z,28.44
2018-06-27T16:48:08.827Z,29.33
2018-06-27T16:51:12.902Z,29.49
2018-06-27T16:54:18.130Z,29.39
2018-06-27T16:57:21.171Z,29.61
2018-06-27T17:00:30.993Z,29.70
2018-06-27T17:03:35.151Z,29.23
2018-06-27T17:06:38.362Z,28.66
2018-06-27T17:09:41.479Z,28.27
2018-06-27T17:12:45.601Z,26.86
2018-06-27T17:15:48.615Z,28.29
2018-06-27T17:18:51.679Z,26.03
2018-06-27T17:21:55.856Z,28.62
2018-06-27T17:25:00.022Z,29.43
2018-06-27T17:28:03.229Z,29.45
2018-06-27T17:31:06.482Z,30.05
2018-06-27T17:34:10.908Z,29.48
2018-06-27T17:37:25.709Z,29.06
2018-06-27T17:40:30.630Z,28.77
2018-06-27T17:43:33.699Z,28.44
2018-06-27T17:46:36.887Z,27.87
2018-06-27T17:49:40.026Z,27.22
2018-06-27T17:52:43.220Z,27.19
2018-06-27T17:55:46.412Z,27.47
2018-06-27T17:58:49.544Z,27.30
2018-06-27T18:01:52.869Z,27.00
2018-06-27T18:04:57.122Z,27.08
2018-06-27T18:08:00.233Z,26.65
2018-06-27T18:11:03.298Z,26.54
2018-06-27T18:14:06.393Z,26.31
2018-06-27T18:17:10.580Z,26.08
2018-06-27T18:20:14.823Z,25.81
2018-06-27T18:23:17.988Z,25.65
2018-06-27T18:26:21.442Z,25.40
2018-06-27T18:29:24.595Z,25.39
2018-06-27T18:32:27.737Z,25.35
2018-06-27T18:35:30.949Z,25.27
2018-06-27T18:38:34.237Z,25.30
2018-06-27T18:41:37.517Z,24.97
2018-06-27T18:44:40.618Z,24.78
2018-06-27T18:47:44.694Z,24.68
2018-06-27T18:50:48.327Z,24.62
2018-06-27T18:53:51.683Z,24.51
2018-06-27T18:56:54.691Z,24.42
2018-06-27T18:59:58.911Z,24.22
2018-06-27T19:03:02.199Z,23.97
2018-06-27T19:06:05.437Z,23.45
2018-06-27T19:09:10.789Z,23.09
2018-06-27T19:12:15.925Z,22.67
2018-06-27T19:15:19.462Z,22.40
2018-06-27T19:18:22.529Z,22.17
2018-06-27T19:21:26.044Z,21.89
2018-06-27T19:24:29.181Z,21.58
2018-06-27T19:27:32.260Z,21.17
2018-06-27T19:30:35.429Z,20.68
2018-06-27T19:33:38.911Z,20.22
2018-06-27T19:36:41.977Z,19.78
2018-06-27T19:39:45.177Z,19.32
2018-06-27T19:42:48.246Z,18.91
2018-06-27T19:45:51.281Z,18.58
2018-06-27T19:48:54.400Z,18.24
2018-06-27T19:51:57.474Z,18.01
2018-06-27T19:55:00.600Z,17.84
2018-06-27T19:58:03.702Z,17.68
2018-06-27T20:01:07.009Z,17.55
2018-06-27T20:04:10.166Z,17.43
2018-06-27T20:07:13.358Z,17.31
2018-06-27T20:10:16.829Z,17.19
2018-06-27T20:13:19.925Z,17.05
2018-06-27T20:16:23.067Z,16.88
2018-06-27T20:19:26.198Z,16.63
2018-06-27T20:22:30.276Z,16.43
2018-06-27T20:25:33.341Z,16.31
2018-06-27T20:28:37.606Z,16.20
2018-06-27T20:31:41.913Z,16.06
2018-06-27T20:34:45.096Z,15.89
2018-06-27T20:37:48.162Z,15.87
2018-06-27T20:40:53.379Z,15.89
2018-06-27T20:43:56.574Z,15.85
2018-06-27T20:46:59.864Z,15.78
2018-06-27T20:50:03.950Z,15.70
2018-06-27T20:53:07.046Z,15.74
2018-06-27T20:56:11.231Z,15.96
2018-06-27T20:59:14.355Z,16.07
2018-06-27T21:02:17.487Z,16.09
2018-06-27T21:05:21.790Z,16.04
2018-06-27T21:08:24.965Z,15.96
2018-06-27T21:11:28.143Z,15.92
2018-06-27T21:14:31.222Z,15.91
2018-06-27T21:17:34.353Z,15.91
2018-06-27T21:20:37.545Z,15.82
2018-06-27T21:23:40.749Z,15.76
2018-06-27T21:26:44.853Z,15.74
2018-06-27T21:29:58.973Z,15.77
2018-06-27T21:33:02.263Z,15.71
2018-06-27T21:36:05.453Z,15.55
2018-06-27T21:39:08.974Z,15.43
2018-06-27T21:42:12.240Z,15.36
2018-06-27T21:45:15.970Z,15.36
2018-06-27T21:48:19.206Z,15.29
2018-06-27T21:51:22.602Z,15.18
2018-06-27T21:54:26.034Z,15.08
2018-06-27T21:57:29.215Z,15.02
2018-06-27T22:00:32.913Z,14.91
2018-06-27T22:03:36.361Z,14.86
2018-06-27T22:06:39.785Z,14.84
2018-06-27T22:09:43.828Z,14.77
2018-06-27T22:12:47.062Z,14.70
2018-06-27T22:15:50.280Z,14.62
2018-06-27T22:18:53.716Z,14.62
2018-06-27T22:21:56.905Z,14.57
2018-06-27T22:25:00.985Z,14.51
2018-06-27T22:28:04.239Z,14.46
2018-06-27T22:31:07.563Z,14.42
2018-06-27T22:34:10.877Z,14.39
2018-06-27T22:37:14.232Z,14.38
2018-06-27T22:40:17.356Z,14.28
2018-06-27T22:43:20.566Z,14.18
2018-06-27T22:46:23.870Z,14.07
2018-06-27T22:49:27.265Z,13.97
2018-06-27T22:52:30.437Z,13.93
2018-06-27T22:55:33.834Z,13.88
2018-06-27T22:58:37.603Z,13.77
2018-06-27T23:01:41.334Z,13.67
2018-06-27T23:04:44.547Z,13.57
2018-06-27T23:07:50.831Z,13.54
2018-06-27T23:10:54.345Z,13.43
2018-06-27T23:13:57.662Z,13.28
2018-06-27T23:17:01.295Z,13.10
2018-06-27T23:20:04.624Z,13.03
2018-06-27T23:23:07.994Z,12.98
2018-06-27T23:26:11.330Z,12.97
2018-06-27T23:29:17.946Z,12.93
2018-06-27T23:32:21.104Z,12.91
2018-06-27T23:35:24.673Z,12.79
2018-06-27T23:38:27.943Z,12.73
2018-06-27T23:41:32.119Z,12.72
2018-06-27T23:44:37.490Z,12.77
2018-06-27T23:47:40.781Z,12.72
2018-06-27T23:50:43.945Z,12.69
2018-06-27T23:53:47.271Z,12.66
2018-06-27T23:56:51.560Z,12.61
2018-06-27T23:59:54.704Z,12.52
